createdAt,value
2019-03-16T00:01:23.622Z,56.45
2019-03-16T00:03:53.970Z,56.32
2019-03-16T00:06:24.314Z,56.81
2019-03-16T00:08:54.650Z,56.71
2019-03-16T00:11:26.464Z,56.36
2019-03-16T00:13:56.821Z,54.90
2019-03-16T00:16:27.169Z,56.14
2019-03-16T00:18:57.519Z,55.97
2019-03-16T00:21:27.944Z,55.58
2019-03-16T00:23:58.309Z,55.96
2019-03-16T00:26:28.660Z,56.14
2019-03-16T00:28:58.988Z,55.48
2019-03-16T00:31:29.320Z,55.41
2019-03-16T00:33:59.660Z,55.17
2019-03-16T00:36:30.002Z,55.61
2019-03-16T00:39:00.334Z,55.41
2019-03-16T00:41:30.680Z,54.68
2019-03-16T00:44:01.031Z,55.66
2019-03-16T00:46:31.411Z,55.18
2019-03-16T00:49:01.691Z,55.21
2019-03-16T00:51:32.043Z,55.18
2019-03-16T00:54:02.408Z,55.09
2019-03-16T00:56:32.695Z,55.05
2019-03-16T00:59:03.039Z,55.77
2019-03-16T01:01:33.372Z,55.73
2019-03-16T01:04:03.704Z,55.56
2019-03-16T01:06:34.044Z,55.90
2019-03-16T01:09:07.549Z,55.49
2019-03-16T01:11:37.888Z,55.51
2019-03-16T01:14:08.206Z,55.87
2019-03-16T01:16:39.635Z,55.02
2019-03-16T01:19:09.984Z,55.54
2019-03-16T01:21:40.325Z,55.85
2019-03-16T01:24:10.661Z,56.19
2019-03-16T01:26:40.940Z,55.52
2019-03-16T01:29:11.281Z,56.53
2019-03-16T01:31:41.635Z,55.80
2019-03-16T01:34:11.962Z,56.52
2019-03-16T01:36:42.290Z,55.67
2019-03-16T01:39:12.569Z,55.88
2019-03-16T01:41:42.932Z,56.33
2019-03-16T01:44:13.262Z,56.12
2019-03-16T01:46:43.624Z,56.54
2019-03-16T01:49:13.885Z,55.33
2019-03-16T01:51:44.263Z,55.82
2019-03-16T01:54:14.577Z,56.42
2019-03-16T01:56:44.937Z,56.55
2019-03-16T01:59:15.274Z,56.18
2019-03-16T02:01:45.608Z,56.58
2019-03-16T02:04:15.952Z,56.59
2019-03-16T02:06:46.240Z,56.58
2019-03-16T02:09:16.564Z,56.41
2019-03-16T02:11:46.914Z,56.18
2019-03-16T02:14:17.194Z,56.63
2019-03-16T02:16:48.514Z,56.51
2019-03-16T02:19:19.037Z,55.92
2019-03-16T02:21:49.423Z,56.07
2019-03-16T02:24:19.845Z,56.37
2019-03-16T02:26:50.197Z,55.97
2019-03-16T02:29:20.557Z,56.55
2019-03-16T02:31:50.886Z,56.47
2019-03-16T02:34:21.230Z,56.87
2019-03-16T02:36:52.753Z,56.74
2019-03-16T02:39:23.100Z,56.98
2019-03-16T02:41:53.457Z,56.81
2019-03-16T02:44:23.726Z,57.00
2019-03-16T02:46:54.060Z,56.70
2019-03-16T02:49:24.401Z,57.51
2019-03-16T02:51:54.764Z,57.08
2019-03-16T02:54:25.128Z,57.33
2019-03-16T02:56:55.394Z,57.59
2019-03-16T02:59:25.756Z,56.49
2019-03-16T03:01:57.076Z,56.71
2019-03-16T03:04:27.450Z,56.65
2019-03-16T03:06:57.728Z,56.68
2019-03-16T03:09:28.017Z,56.67
2019-03-16T03:11:58.358Z,57.20
2019-03-16T03:14:30.311Z,57.09
2019-03-16T03:17:00.683Z,56.50
2019-03-16T03:19:31.034Z,56.67
2019-03-16T03:22:01.384Z,56.70
2019-03-16T03:24:31.734Z,57.11
2019-03-16T03:27:02.238Z,57.70
2019-03-16T03:29:32.596Z,56.69
2019-03-16T03:32:02.948Z,56.49
2019-03-16T03:34:33.414Z,56.88
2019-03-16T03:37:03.687Z,56.31
2019-03-16T03:39:34.037Z,56.17
2019-03-16T03:42:04.386Z,56.27
2019-03-16T03:44:34.713Z,57.00
2019-03-16T03:47:05.069Z,56.55
2019-03-16T03:49:35.575Z,57.26
2019-03-16T03:52:06.990Z,57.45
2019-03-16T03:54:37.341Z,56.70
2019-03-16T03:57:09.150Z,57.04
2019-03-16T03:59:39.499Z,57.04
2019-03-16T04:02:09.852Z,57.68
2019-03-16T04:04:40.195Z,57.40
2019-03-16T04:07:10.609Z,57.14
2019-03-16T04:09:40.957Z,57.41
2019-03-16T04:12:11.340Z,57.43
2019-03-16T04:14:41.883Z,57.57
2019-03-16T04:17:12.374Z,56.77
2019-03-16T04:19:42.753Z,56.83
2019-03-16T04:22:13.062Z,57.08
2019-03-16T04:24:45.348Z,56.78
2019-03-16T04:27:16.740Z,57.35
2019-03-16T04:29:47.421Z,57.59
2019-03-16T04:32:17.776Z,56.81
2019-03-16T04:34:48.155Z,57.00
2019-03-16T04:37:18.523Z,57.70
2019-03-16T04:39:48.866Z,57.61
2019-03-16T04:42:19.219Z,57.54
2019-03-16T04:44:49.541Z,57.69
2019-03-16T04:47:19.895Z,58.21
2019-03-16T04:49:50.239Z,58.40
2019-03-16T04:52:20.588Z,57.47
2019-03-16T04:54:51.242Z,58.01
2019-03-16T04:57:21.597Z,58.35
2019-03-16T04:59:51.932Z,58.40
2019-03-16T05:02:23.454Z,58.56
2019-03-16T05:04:53.778Z,58.67
2019-03-16T05:07:24.164Z,58.67
2019-03-16T05:09:54.510Z,58.78
2019-03-16T05:12:24.849Z,58.95
2019-03-16T05:14:55.195Z,59.50
2019-03-16T05:17:25.534Z,59.91
2019-03-16T05:19:55.858Z,59.50
2019-03-16T05:22:26.207Z,59.88
2019-03-16T05:24:56.584Z,59.63
2019-03-16T05:27:26.924Z,59.69
2019-03-16T05:29:57.359Z,60.04
2019-03-16T05:32:27.877Z,60.05
2019-03-16T05:34:59.136Z,59.92
2019-03-16T05:37:29.628Z,60.06
2019-03-16T05:39:59.975Z,60.24
2019-03-16T05:42:30.322Z,59.49
2019-03-16T05:45:00.653Z,59.38
2019-03-16T05:47:31.010Z,59.76
2019-03-16T05:50:01.380Z,59.32
2019-03-16T05:52:32.798Z,59.30
2019-03-16T05:55:03.269Z,59.28
2019-03-16T05:57:33.687Z,59.15
2019-03-16T06:00:09.957Z,59.41
2019-03-16T06:02:40.883Z,59.10
2019-03-16T06:05:11.597Z,59.02
2019-03-16T06:07:42.037Z,59.90
2019-03-16T06:10:12.763Z,59.96
2019-03-16T06:12:46.296Z,59.87
2019-03-16T06:15:15.238Z,59.66
2019-03-16T06:17:45.635Z,59.52
2019-03-16T06:20:16.099Z,59.40
2019-03-16T06:22:46.430Z,59.03
2019-03-16T06:25:16.784Z,58.93
2019-03-16T06:27:47.059Z,58.54
2019-03-16T06:30:20.655Z,58.64
2019-03-16T06:32:49.536Z,55.97
2019-03-16T06:35:24.986Z,50.73
2019-03-16T06:37:51.951Z,47.13
2019-03-16T06:40:22.300Z,49.12
2019-03-16T06:42:52.662Z,52.00
2019-03-16T06:45:22.938Z,54.36
2019-03-16T06:47:54.760Z,49.34
2019-03-16T06:50:25.549Z,44.02
2019-03-16T06:52:55.909Z,43.57
2019-03-16T06:55:27.864Z,44.64
2019-03-16T06:57:58.296Z,49.81
2019-03-16T07:00:29.313Z,53.24
2019-03-16T07:02:59.645Z,54.68
2019-03-16T07:05:38.159Z,55.69
2019-03-16T07:08:02.731Z,56.35
2019-03-16T07:10:33.073Z,56.80
2019-03-16T07:13:03.522Z,57.34
2019-03-16T07:15:34.619Z,57.35
2019-03-16T07:18:05.199Z,57.71
2019-03-16T07:20:35.531Z,57.83
2019-03-16T07:23:05.863Z,56.15
2019-03-16T07:25:36.208Z,56.80
2019-03-16T07:28:06.541Z,57.20
2019-03-16T07:30:37.317Z,57.28
2019-03-16T07:33:07.841Z,57.70
2019-03-16T07:35:38.206Z,58.20
2019-03-16T07:38:08.587Z,57.88
2019-03-16T07:40:39.714Z,56.16
2019-03-16T07:43:10.851Z,56.84
2019-03-16T07:45:41.205Z,56.94
2019-03-16T07:48:11.774Z,57.06
2019-03-16T07:50:43.191Z,56.82
2019-03-16T07:53:13.868Z,56.27
2019-03-16T07:55:44.163Z,56.22
2019-03-16T07:58:14.513Z,56.93
2019-03-16T08:00:45.590Z,56.38
2019-03-16T08:03:16.592Z,56.91
2019-03-16T08:05:47.438Z,56.67
2019-03-16T08:08:17.883Z,56.64
2019-03-16T08:10:48.297Z,55.95
2019-03-16T08:13:18.680Z,56.77
2019-03-16T08:15:49.038Z,56.45
2019-03-16T08:18:19.389Z,55.57
2019-03-16T08:20:49.744Z,56.19
2019-03-16T08:23:20.148Z,56.15
2019-03-16T08:25:50.482Z,56.19
2019-03-16T08:28:20.892Z,55.55
2019-03-16T08:30:51.275Z,54.84
2019-03-16T08:33:21.710Z,55.16
2019-03-16T08:35:52.100Z,54.11
2019-03-16T08:38:22.660Z,53.38
2019-03-16T08:40:52.975Z,53.14
2019-03-16T08:43:23.327Z,53.92
2019-03-16T08:45:53.787Z,55.10
2019-03-16T08:48:24.204Z,55.09
2019-03-16T08:50:54.721Z,54.67
2019-03-16T08:53:25.103Z,53.05
2019-03-16T08:55:57.172Z,53.23
2019-03-16T08:58:27.570Z,53.96
2019-03-16T09:00:57.953Z,54.46
2019-03-16T09:03:28.562Z,54.71
2019-03-16T09:05:58.944Z,54.91
2019-03-16T09:08:29.504Z,54.18
2019-03-16T09:10:59.881Z,54.34
2019-03-16T09:13:30.253Z,54.28
2019-03-16T09:16:00.644Z,51.70
2019-03-16T09:18:31.151Z,51.21
2019-03-16T09:21:03.255Z,51.19
2019-03-16T09:23:33.709Z,51.58
2019-03-16T09:26:04.141Z,51.23
2019-03-16T09:28:35.561Z,52.63
2019-03-16T09:31:06.118Z,52.24
2019-03-16T09:33:36.560Z,51.38
2019-03-16T09:36:07.059Z,53.03
2019-03-16T09:38:37.487Z,52.57
2019-03-16T09:41:07.893Z,52.89
2019-03-16T09:43:38.270Z,53.92
2019-03-16T09:46:08.663Z,55.13
2019-03-16T09:48:39.031Z,55.84
2019-03-16T09:51:09.641Z,56.61
2019-03-16T09:53:41.493Z,56.76
2019-03-16T09:56:11.843Z,55.67
2019-03-16T09:58:43.834Z,56.13
2019-03-16T10:01:15.484Z,55.69
2019-03-16T10:03:46.170Z,54.61
2019-03-16T10:06:17.140Z,54.16
2019-03-16T10:08:47.566Z,52.48
2019-03-16T10:11:17.913Z,52.70
2019-03-16T10:13:48.300Z,52.89
2019-03-16T10:16:18.714Z,53.48
2019-03-16T10:18:49.090Z,53.41
2019-03-16T10:21:19.801Z,53.33
2019-03-16T10:23:50.198Z,52.20
2019-03-16T10:26:20.539Z,52.08
2019-03-16T10:28:51.084Z,51.26
2019-03-16T10:31:21.543Z,52.02
2019-03-16T10:33:51.871Z,52.32
2019-03-16T10:36:22.268Z,52.01
2019-03-16T10:38:52.630Z,52.25
2019-03-16T10:41:22.981Z,50.37
2019-03-16T10:43:53.343Z,50.41
2019-03-16T10:46:23.709Z,50.88
2019-03-16T10:48:55.755Z,50.07
2019-03-16T10:51:27.688Z,50.22
2019-03-16T10:53:58.255Z,49.20
2019-03-16T10:56:28.647Z,49.30
2019-03-16T10:58:59.406Z,48.84
2019-03-16T11:01:30.534Z,48.13
2019-03-16T11:04:01.533Z,47.92
2019-03-16T11:06:31.984Z,47.02
2019-03-16T11:09:02.867Z,47.36
2019-03-16T11:11:33.237Z,45.96
2019-03-16T11:14:04.637Z,47.17
2019-03-16T11:16:35.017Z,46.56
2019-03-16T11:19:05.384Z,46.60
2019-03-16T11:21:35.753Z,48.22
2019-03-16T11:24:06.119Z,48.56
2019-03-16T11:26:36.469Z,48.46
2019-03-16T11:29:09.325Z,48.65
2019-03-16T11:31:38.885Z,49.93
2019-03-16T11:34:09.528Z,49.58
2019-03-16T11:36:40.442Z,49.18
2019-03-16T11:39:10.950Z,48.57
2019-03-16T11:41:41.323Z,48.68
2019-03-16T11:44:12.655Z,46.30
2019-03-16T11:46:43.004Z,47.78
2019-03-16T11:49:13.372Z,48.98
2019-03-16T11:51:43.775Z,47.04
2019-03-16T11:54:13.969Z,46.93
2019-03-16T11:56:44.348Z,47.03
2019-03-16T11:59:21.437Z,48.20
2019-03-16T12:01:46.706Z,46.94
2019-03-16T12:04:17.082Z,45.91
2019-03-16T12:06:47.821Z,44.60
2019-03-16T12:09:18.173Z,45.66
2019-03-16T12:11:48.506Z,46.46
2019-03-16T12:14:18.864Z,46.13
2019-03-16T12:16:49.289Z,46.70
2019-03-16T12:19:19.580Z,45.66
2019-03-16T12:21:49.940Z,46.00
2019-03-16T12:24:20.240Z,45.45
2019-03-16T12:26:50.568Z,45.12
2019-03-16T12:29:33.103Z,45.78
2019-03-16T12:31:53.558Z,45.25
2019-03-16T12:34:23.993Z,46.79
2019-03-16T12:36:54.401Z,46.72
2019-03-16T12:39:24.736Z,46.86
2019-03-16T12:41:55.099Z,47.38
2019-03-16T12:44:25.448Z,45.44
2019-03-16T12:46:55.845Z,43.33
2019-03-16T12:49:26.204Z,44.71
2019-03-16T12:51:56.654Z,43.82
2019-03-16T12:54:27.094Z,44.10
2019-03-16T12:56:57.438Z,43.51
2019-03-16T12:59:27.740Z,42.82
2019-03-16T13:01:58.103Z,42.41
2019-03-16T13:04:28.497Z,44.72
2019-03-16T13:06:58.856Z,43.83
2019-03-16T13:09:29.221Z,42.70
2019-03-16T13:11:59.694Z,42.36
2019-03-16T13:14:30.072Z,44.93
2019-03-16T13:17:00.420Z,43.85
2019-03-16T13:19:30.977Z,44.80
2019-03-16T13:22:01.366Z,44.40
2019-03-16T13:24:31.713Z,45.14
2019-03-16T13:27:02.426Z,44.69
2019-03-16T13:29:32.863Z,44.78
2019-03-16T13:32:03.231Z,43.95
2019-03-16T13:34:35.224Z,45.14
2019-03-16T13:37:05.575Z,43.28
2019-03-16T13:39:35.949Z,43.72
2019-03-16T13:42:06.292Z,43.39
2019-03-16T13:44:37.015Z,44.61
2019-03-16T13:47:07.409Z,43.74
2019-03-16T13:49:38.169Z,44.38
2019-03-16T13:52:08.547Z,44.32
2019-03-16T13:54:39.202Z,44.16
2019-03-16T13:57:09.559Z,43.55
2019-03-16T13:59:39.939Z,44.41
2019-03-16T14:02:10.265Z,42.69
2019-03-16T14:04:41.076Z,42.27
2019-03-16T14:07:12.945Z,42.94
2019-03-16T14:09:43.691Z,44.20
2019-03-16T14:12:14.268Z,44.22
2019-03-16T14:14:44.952Z,44.34
2019-03-16T14:17:16.620Z,43.09
2019-03-16T14:19:47.422Z,43.96
2019-03-16T14:22:19.459Z,43.69
2019-03-16T14:24:49.861Z,44.47
2019-03-16T14:27:20.339Z,41.66
2019-03-16T14:29:51.589Z,41.69
2019-03-16T14:32:23.701Z,42.40
2019-03-16T14:34:54.417Z,41.99
2019-03-16T14:37:25.026Z,42.45
2019-03-16T14:39:55.693Z,42.95
2019-03-16T14:42:26.356Z,41.47
2019-03-16T14:44:57.956Z,43.21
2019-03-16T14:47:28.709Z,42.75
2019-03-16T14:49:59.308Z,43.68
2019-03-16T14:52:30.323Z,43.59
2019-03-16T14:55:01.010Z,44.13
2019-03-16T14:57:31.443Z,44.66
2019-03-16T15:00:01.935Z,43.96
2019-03-16T15:02:33.988Z,44.91
2019-03-16T15:05:05.853Z,46.16
2019-03-16T15:07:36.385Z,46.36
2019-03-16T15:10:11.923Z,45.83
2019-03-16T15:12:42.507Z,46.31
2019-03-16T15:15:18.079Z,45.80
2019-03-16T15:17:48.861Z,46.82
2019-03-16T15:20:19.479Z,46.46
2019-03-16T15:22:49.995Z,46.40
2019-03-16T15:25:22.360Z,46.38
2019-03-16T15:27:52.970Z,46.30
2019-03-16T15:30:23.503Z,45.84
2019-03-16T15:32:54.169Z,46.24
2019-03-16T15:35:24.803Z,46.30
2019-03-16T15:37:56.002Z,46.71
2019-03-16T15:40:26.794Z,46.89
2019-03-16T15:42:57.398Z,47.44
2019-03-16T15:45:31.801Z,48.77
2019-03-16T15:48:02.223Z,49.53
2019-03-16T15:50:32.728Z,50.17
2019-03-16T15:53:03.247Z,50.56
2019-03-16T15:55:34.042Z,50.42
2019-03-16T15:58:08.417Z,51.25
2019-03-16T16:00:36.748Z,51.51
2019-03-16T16:03:09.212Z,51.57
2019-03-16T16:05:39.429Z,52.57
2019-03-16T16:08:09.931Z,53.23
2019-03-16T16:10:40.830Z,53.61
2019-03-16T16:13:11.318Z,54.28
2019-03-16T16:15:41.647Z,54.81
2019-03-16T16:18:12.069Z,55.65
2019-03-16T16:20:42.436Z,54.92
2019-03-16T16:23:12.815Z,55.92
2019-03-16T16:25:43.150Z,55.21
2019-03-16T16:28:15.341Z,54.88
2019-03-16T16:30:46.208Z,55.53
2019-03-16T16:33:16.856Z,55.82
2019-03-16T16:35:48.402Z,55.60
2019-03-16T16:38:18.726Z,55.81
2019-03-16T16:40:49.076Z,56.77
2019-03-16T16:43:20.595Z,56.65
2019-03-16T16:45:51.005Z,57.41
2019-03-16T16:48:21.408Z,58.58
2019-03-16T16:50:51.931Z,59.67
2019-03-16T16:53:22.265Z,60.62
2019-03-16T16:55:52.698Z,61.00
2019-03-16T16:58:23.040Z,61.63
2019-03-16T17:00:53.390Z,62.28
2019-03-16T17:03:23.564Z,62.06
2019-03-16T17:05:54.075Z,62.15
2019-03-16T17:08:24.489Z,62.56
2019-03-16T17:10:56.057Z,62.50
2019-03-16T17:13:26.417Z,63.01
2019-03-16T17:15:57.812Z,63.57
2019-03-16T17:18:28.147Z,64.12
2019-03-16T17:20:58.492Z,64.28
2019-03-16T17:23:28.866Z,64.81
2019-03-16T17:25:59.293Z,65.51
2019-03-16T17:28:29.682Z,64.51
2019-03-16T17:31:02.858Z,65.27
2019-03-16T17:33:33.441Z,65.69
2019-03-16T17:36:03.843Z,67.41
2019-03-16T17:38:34.308Z,67.49
2019-03-16T17:41:04.717Z,67.15
2019-03-16T17:43:35.090Z,66.74
2019-03-16T17:46:05.521Z,66.14
2019-03-16T17:48:35.914Z,65.62
2019-03-16T17:51:06.467Z,65.35
2019-03-16T17:53:37.787Z,64.60
2019-03-16T17:56:08.138Z,64.01
2019-03-16T17:58:38.470Z,63.67
2019-03-16T18:01:09.797Z,63.16
2019-03-16T18:03:40.376Z,62.80
2019-03-16T18:06:10.805Z,62.44
2019-03-16T18:08:41.263Z,62.32
2019-03-16T18:11:13.710Z,62.93
2019-03-16T18:13:44.078Z,63.21
2019-03-16T18:16:14.426Z,63.57
2019-03-16T18:18:44.985Z,63.64
2019-03-16T18:21:15.617Z,62.88
2019-03-16T18:23:45.984Z,62.99
2019-03-16T18:26:16.482Z,62.40
2019-03-16T18:28:47.592Z,62.91
2019-03-16T18:31:17.902Z,62.99
2019-03-16T18:33:48.250Z,63.21
2019-03-16T18:36:18.638Z,63.05
2019-03-16T18:38:49.184Z,62.93
2019-03-16T18:41:19.557Z,62.79
2019-03-16T18:43:49.951Z,64.08
2019-03-16T18:46:20.422Z,64.50
2019-03-16T18:48:50.713Z,64.06
2019-03-16T18:51:23.786Z,64.46
2019-03-16T18:53:54.142Z,64.22
2019-03-16T18:56:24.486Z,64.08
2019-03-16T18:58:54.854Z,64.28
2019-03-16T19:01:25.223Z,64.51
2019-03-16T19:03:55.588Z,65.28
2019-03-16T19:06:27.462Z,64.87
2019-03-16T19:08:57.820Z,64.64
2019-03-16T19:11:28.482Z,65.56
2019-03-16T19:13:58.866Z,65.95
2019-03-16T19:16:29.277Z,65.97
2019-03-16T19:18:59.805Z,65.49
2019-03-16T19:21:30.370Z,65.68
2019-03-16T19:24:00.771Z,65.41
2019-03-16T19:26:33.877Z,65.25
2019-03-16T19:29:04.302Z,65.73
2019-03-16T19:31:36.110Z,66.09
2019-03-16T19:34:06.481Z,65.97
2019-03-16T19:36:36.818Z,66.70
2019-03-16T19:39:07.391Z,66.80
2019-03-16T19:41:37.782Z,67.21
2019-03-16T19:44:08.458Z,67.44
2019-03-16T19:46:38.820Z,67.06
2019-03-16T19:49:09.740Z,67.26
2019-03-16T19:51:40.194Z,66.87
2019-03-16T19:54:11.202Z,66.70
2019-03-16T19:56:41.838Z,66.16
2019-03-16T19:59:12.353Z,67.81
2019-03-16T20:01:42.914Z,68.74
2019-03-16T20:04:13.370Z,69.26
2019-03-16T20:06:44.887Z,69.28
2019-03-16T20:09:16.124Z,68.37
2019-03-16T20:11:47.071Z,67.82
2019-03-16T20:14:18.477Z,67.99
2019-03-16T20:16:48.806Z,68.24
2019-03-16T20:19:19.673Z,68.90
2019-03-16T20:21:50.246Z,68.89
2019-03-16T20:24:21.251Z,70.29
2019-03-16T20:26:52.433Z,70.55
2019-03-16T20:29:23.422Z,70.91
2019-03-16T20:31:57.632Z,70.45
2019-03-16T20:34:31.869Z,69.61
2019-03-16T20:37:03.011Z,70.55
2019-03-16T20:39:33.744Z,70.55
2019-03-16T20:42:04.232Z,70.66
2019-03-16T20:44:34.992Z,70.07
2019-03-16T20:47:05.737Z,70.91
2019-03-16T20:49:36.628Z,69.94
2019-03-16T20:52:08.106Z,70.26
2019-03-16T20:54:39.006Z,69.94
2019-03-16T20:57:09.366Z,70.08
2019-03-16T20:59:41.444Z,69.80
2019-03-16T21:02:11.914Z,70.08
2019-03-16T21:04:42.879Z,70.32
2019-03-16T21:07:13.601Z,70.32
2019-03-16T21:09:44.469Z,70.21
2019-03-16T21:12:15.000Z,70.50
2019-03-16T21:14:46.279Z,70.74
2019-03-16T21:17:17.294Z,69.96
2019-03-16T21:19:47.879Z,71.06
2019-03-16T21:22:20.285Z,72.10
2019-03-16T21:24:51.240Z,71.92
2019-03-16T21:27:22.052Z,71.48
2019-03-16T21:29:54.725Z,71.08
2019-03-16T21:32:25.790Z,70.75
2019-03-16T21:34:57.704Z,71.75
2019-03-16T21:37:28.088Z,71.72
2019-03-16T21:39:58.440Z,72.42
2019-03-16T21:42:28.798Z,72.33
2019-03-16T21:44:59.209Z,72.63
2019-03-16T21:47:32.643Z,72.46
2019-03-16T21:50:03.006Z,72.63
2019-03-16T21:52:34.240Z,71.88
2019-03-16T21:55:07.332Z,72.27
2019-03-16T21:57:37.711Z,72.02
2019-03-16T22:00:18.350Z,72.18
2019-03-16T22:02:48.740Z,72.19
2019-03-16T22:05:19.141Z,72.35
2019-03-16T22:07:49.967Z,71.29
2019-03-16T22:10:20.387Z,71.18
2019-03-16T22:12:50.968Z,73.07
2019-03-16T22:15:21.510Z,72.05
2019-03-16T22:17:52.476Z,71.74
2019-03-16T22:20:22.935Z,71.46
2019-03-16T22:22:54.378Z,71.31
2019-03-16T22:25:24.758Z,71.79
2019-03-16T22:27:55.151Z,71.79
2019-03-16T22:30:25.728Z,71.93
2019-03-16T22:32:56.114Z,71.95
2019-03-16T22:35:26.502Z,72.11
2019-03-16T22:37:58.220Z,71.73
2019-03-16T22:40:28.580Z,71.15
2019-03-16T22:42:58.957Z,71.73
2019-03-16T22:45:29.323Z,70.58
2019-03-16T22:47:59.679Z,71.12
2019-03-16T22:50:30.620Z,72.96
2019-03-16T22:53:00.965Z,72.46
2019-03-16T22:55:31.388Z,72.86
2019-03-16T22:58:01.777Z,74.37
2019-03-16T23:00:43.060Z,73.01
2019-03-16T23:03:13.558Z,72.20
2019-03-16T23:05:43.929Z,71.70
2019-03-16T23:08:14.287Z,72.90
2019-03-16T23:10:44.624Z,73.14
2019-03-16T23:13:14.960Z,71.23
2019-03-16T23:15:45.340Z,72.74
2019-03-16T23:18:15.673Z,72.15
2019-03-16T23:20:46.057Z,71.12
2019-03-16T23:23:16.455Z,70.75
2019-03-16T23:25:46.768Z,69.86
2019-03-16T23:28:17.138Z,68.67
2019-03-16T23:30:47.629Z,68.67
2019-03-16T23:33:17.995Z,68.20
2019-03-16T23:35:48.429Z,68.20
2019-03-16T23:38:18.788Z,68.74
2019-03-16T23:40:49.087Z,68.05
2019-03-16T23:43:19.432Z,68.41
2019-03-16T23:45:49.832Z,69.34
2019-03-16T23:48:20.181Z,69.42
2019-03-16T23:50:51.242Z,70.97
2019-03-16T23:53:21.594Z,71.72
2019-03-16T23:55:51.921Z,69.29
2019-03-16T23:58:22.357Z,68.57
